Time;durP1;ratioP1;P1;durP2;ratioP2;P2;SDS_P1;SDS_P2;PMS_P1;PMS_P2;Temp;Humidity;BMP_temperature;BMP_pressure;BME280_temperature;BME280_humidity;BME280_pressure;Samples;Min_cycle;Max_cycle;Signal;HPM_P1;HPM_P2
2022/07/09 00:02:23;;;;;;;1.50;0.63;;;;;;;12.66;100.00;102393.28;5051809;28;20520;-51
2022/07/09 00:04:49;;;;;;;0.50;0.50;;;;;;;12.66;100.00;102396.78;5059989;28;20063;-52
2022/07/09 00:07:15;;;;;;;1.13;0.30;;;;;;;12.68;100.00;102393.13;5060727;28;20172;-52
2022/07/09 00:09:40;;;;;;;0.38;0.38;;;;;;;12.68;100.00;102395.81;5064129;28;20146;-50
2022/07/09 00:12:06;;;;;;;1.00;0.52;;;;;;;12.59;100.00;102395.72;5054522;28;20067;-53
2022/07/09 00:14:31;;;;;;;0.63;0.63;;;;;;;12.51;100.00;102403.66;5057393;28;20048;-50
2022/07/09 00:16:57;;;;;;;0.73;0.55;;;;;;;12.44;100.00;102407.94;5058839;28;20044;-50
2022/07/09 00:19:22;;;;;;;0.57;0.43;;;;;;;12.38;100.00;102404.09;5065463;28;20037;-51
2022/07/09 00:21:47;;;;;;;3.67;0.60;;;;;;;12.40;100.00;102394.13;5059137;28;20116;-50
2022/07/09 00:24:13;;;;;;;0.55;0.35;;;;;;;12.40;100.00;102404.78;5059251;28;20067;-55
2022/07/09 00:26:38;;;;;;;0.95;0.50;;;;;;;12.33;100.00;102409.03;5065025;28;20116;-49
2022/07/09 00:29:04;;;;;;;4.15;0.73;;;;;;;12.29;100.00;102410.34;5061546;28;20461;-50
2022/07/09 00:31:29;;;;;;;0.70;0.25;;;;;;;12.23;100.00;102411.78;5049491;28;20120;-55
2022/07/09 00:33:54;;;;;;;0.63;0.50;;;;;;;12.15;100.00;102425.03;5058240;28;20052;-50
2022/07/09 00:36:20;;;;;;;0.88;0.82;;;;;;;12.08;100.00;102421.34;5063058;28;20114;-51
2022/07/09 00:38:45;;;;;;;0.65;0.40;;;;;;;12.02;100.00;102411.28;5060936;28;20508;-53
2022/07/09 00:41:10;;;;;;;0.45;0.15;;;;;;;11.99;100.00;102419.56;5072477;28;20037;-55
2022/07/09 00:43:36;;;;;;;0.25;0.20;;;;;;;11.93;100.00;102415.72;5051925;28;20039;-54
2022/07/09 00:46:01;;;;;;;1.40;0.70;;;;;;;11.91;100.00;102425.66;5076738;28;20039;-52
2022/07/09 00:48:27;;;;;;;2.17;0.20;;;;;;;11.90;100.00;102423.13;5060538;28;20391;-49
2022/07/09 00:50:53;;;;;;;0.50;0.50;;;;;;;11.88;100.00;102425.97;5059042;28;20109;-55
2022/07/09 00:53:24;;;;;;;0.40;0.40;;;;;;;11.82;100.00;102425.69;5064109;28;20032;-52
2022/07/09 00:55:51;;;;;;;0.70;0.40;;;;;;;11.77;100.00;102420.81;5065014;28;20555;-50
2022/07/09 00:58:18;;;;;;;0.60;0.50;;;;;;;11.76;100.00;102424.47;5058901;28;20029;-51
2022/07/09 01:00:44;;;;;;;1.35;0.35;;;;;;;11.74;100.00;102427.28;5058701;28;20029;-51
2022/07/09 01:03:09;;;;;;;1.90;0.22;;;;;;;11.70;100.00;102423.28;5060218;28;20083;-54
2022/07/09 01:05:35;;;;;;;0.73;0.40;;;;;;;11.66;100.00;102424.53;5058473;28;20036;-50
2022/07/09 01:08:05;;;;;;;0.30;0.30;;;;;;;11.62;100.00;102422.38;5055729;28;20040;-53
2022/07/09 01:10:33;;;;;;;0.45;0.45;;;;;;;11.58;100.00;102427.13;5052373;28;20082;-48
2022/07/09 01:12:58;;;;;;;0.30;0.30;;;;;;;11.52;100.00;102423.25;5056858;28;20056;-50
2022/07/09 01:15:24;;;;;;;0.20;0.20;;;;;;;11.46;100.00;102426.53;5059056;28;20263;-50
2022/07/09 01:17:51;;;;;;;0.82;0.15;;;;;;;11.42;100.00;102429.63;5059400;28;20048;-51
2022/07/09 01:20:30;;;;;;;0.90;0.30;;;;;;;11.36;100.00;102433.72;5057648;28;20036;-50
2022/07/09 01:22:56;;;;;;;0.47;0.25;;;;;;;11.31;100.00;102430.66;5057419;28;20028;-53
2022/07/09 01:25:35;;;;;;;2.63;0.45;;;;;;;11.31;100.00;102428.00;5063276;28;20454;-51
2022/07/09 01:28:01;;;;;;;2.28;0.38;;;;;;;11.30;100.00;102427.16;5059882;28;20051;-54
2022/07/09 01:30:28;;;;;;;1.70;0.32;;;;;;;11.27;100.00;102429.28;5070749;28;20113;-51
2022/07/09 01:32:54;;;;;;;0.20;0.10;;;;;;;11.24;100.00;102424.25;5060152;28;20028;-54
2022/07/09 01:35:21;;;;;;;0.80;0.40;;;;;;;11.23;100.00;102433.19;5063175;28;20032;-51
2022/07/09 01:37:47;;;;;;;0.47;0.32;;;;;;;11.19;100.00;102426.53;5060421;28;20036;-51
2022/07/09 01:40:13;;;;;;;0.25;0.25;;;;;;;11.12;100.00;102423.59;5070978;28;20108;-49
2022/07/09 01:42:38;;;;;;;0.30;0.20;;;;;;;11.10;100.00;102425.56;5063054;28;20112;-49
2022/07/09 01:45:04;;;;;;;0.25;0.20;;;;;;;11.04;100.00;102424.34;5067588;28;20066;-51
2022/07/09 01:47:29;;;;;;;0.45;0.45;;;;;;;10.99;100.00;102428.41;5068210;28;20418;-54
2022/07/09 01:49:55;;;;;;;0.30;0.30;;;;;;;10.97;100.00;102428.59;5065332;28;20039;-55
2022/07/09 01:52:20;;;;;;;0.20;0.20;;;;;;;10.95;100.00;102427.06;5062340;28;20052;-53
2022/07/09 01:54:46;;;;;;;1.10;0.47;;;;;;;10.88;100.00;102429.44;5060211;28;20028;-52
2022/07/09 01:57:11;;;;;;;0.17;0.17;;;;;;;10.83;100.00;102424.56;5070906;28;20131;-53
2022/07/09 01:59:36;;;;;;;0.10;0.10;;;;;;;10.80;100.00;102416.91;5063901;28;20116;-49
2022/07/09 02:02:02;;;;;;;0.50;0.30;;;;;;;10.80;100.00;102413.41;5063279;28;20065;-53
2022/07/09 02:04:27;;;;;;;0.60;0.60;;;;;;;10.78;100.00;102433.94;5058751;28;20024;-53
2022/07/09 02:06:53;;;;;;;1.05;0.30;;;;;;;10.69;100.00;102430.38;5073882;28;20481;-48
2022/07/09 02:09:18;;;;;;;2.67;0.77;;;;;;;10.62;100.00;102432.75;5068681;28;20036;-52
2022/07/09 02:11:44;;;;;;;0.40;0.40;;;;;;;10.56;100.00;102425.38;5065363;28;20040;-53
2022/07/09 02:14:09;;;;;;;0.55;0.55;;;;;;;10.54;100.00;102426.50;5063212;28;20209;-53
2022/07/09 02:16:35;;;;;;;3.60;0.20;;;;;;;10.54;100.00;102424.66;5059037;28;20052;-49
2022/07/09 02:19:00;;;;;;;0.85;0.20;;;;;;;10.58;100.00;102430.50;5063682;28;20024;-53
2022/07/09 02:21:25;;;;;;;0.38;0.17;;;;;;;10.57;100.00;102434.16;5065060;28;20033;-51
2022/07/09 02:23:52;;;;;;;1.88;0.20;;;;;;;10.52;100.00;102429.28;5061888;28;20029;-50
2022/07/09 02:26:18;;;;;;;2.38;0.68;;;;;;;10.47;100.00;102428.88;5058339;28;20036;-52
2022/07/09 02:28:43;;;;;;;0.35;0.30;;;;;;;10.45;100.00;102430.81;5056682;28;20414;-53
2022/07/09 02:31:08;;;;;;;0.10;0.10;;;;;;;10.44;100.00;102423.84;5070941;28;20033;-50
2022/07/09 02:33:34;;;;;;;0.50;0.30;;;;;;;10.44;100.00;102429.97;5058763;28;20204;-52
2022/07/09 02:35:59;;;;;;;2.90;0.50;;;;;;;10.44;100.00;102437.94;5059396;28;20052;-53
2022/07/09 02:38:25;;;;;;;0.10;0.10;;;;;;;10.38;100.00;102421.78;5070174;28;20059;-52
2022/07/09 02:40:50;;;;;;;0.10;0.10;;;;;;;10.34;100.00;102425.69;5074103;28;20024;-55
2022/07/09 02:43:15;;;;;;;1.15;0.38;;;;;;;10.25;100.00;102433.47;5061980;28;20561;-55
2022/07/09 02:45:41;;;;;;;0.10;0.10;;;;;;;10.18;100.00;102423.59;5063982;28;20381;-51
2022/07/09 02:48:06;;;;;;;0.80;0.35;;;;;;;10.13;100.00;102426.66;5073851;28;20024;-52
2022/07/09 02:50:31;;;;;;;0.40;0.28;;;;;;;10.11;100.00;102419.81;5053052;28;20449;-55
2022/07/09 02:52:57;;;;;;;0.30;0.20;;;;;;;10.08;100.00;102420.09;5060185;28;20174;-55
2022/07/09 02:55:22;;;;;;;0.63;0.38;;;;;;;10.05;100.00;102422.03;5064386;28;20032;-54
2022/07/09 02:57:47;;;;;;;0.55;0.15;;;;;;;10.02;100.00;102409.06;5067574;28;20033;-52
2022/07/09 03:00:13;;;;;;;0.30;0.13;;;;;;;10.00;100.00;102418.97;5069519;28;20044;-52
2022/07/09 03:02:38;;;;;;;0.70;0.40;;;;;;;9.96;100.00;102417.56;5068274;28;20607;-54
2022/07/09 03:05:04;;;;;;;1.13;0.20;;;;;;;9.95;100.00;102420.38;5061309;28;20024;-50
2022/07/09 03:07:29;;;;;;;3.40;1.20;;;;;;;9.94;100.00;102416.03;5069965;28;20036;-51
2022/07/09 03:09:56;;;;;;;1.05;0.50;;;;;;;9.91;100.00;102416.31;5069082;28;20059;-53
2022/07/09 03:12:21;;;;;;;0.30;0.30;;;;;;;9.85;100.00;102424.84;5055100;28;20029;-55
2022/07/09 03:14:47;;;;;;;0.20;0.10;;;;;;;9.79;100.00;102421.75;5051415;28;20036;-53
2022/07/09 03:17:12;;;;;;;0.43;0.43;;;;;;;9.77;100.00;102412.28;5073040;28;20043;-51
2022/07/09 03:19:37;;;;;;;0.73;0.35;;;;;;;9.72;100.00;102415.34;5063455;28;20032;-50
2022/07/09 03:22:03;;;;;;;0.20;0.20;;;;;;;9.68;100.00;102418.41;5067782;28;20082;-52
2022/07/09 03:24:29;;;;;;;1.33;0.40;;;;;;;9.60;100.00;102417.28;5055070;28;20044;-49
2022/07/09 03:26:54;;;;;;;0.63;0.30;;;;;;;9.55;100.00;102424.81;5062398;28;20020;-52
2022/07/09 03:29:19;;;;;;;1.85;0.32;;;;;;;9.54;100.00;102427.59;5073478;28;20024;-53
2022/07/09 03:31:45;;;;;;;0.60;0.15;;;;;;;9.52;100.00;102435.66;5062738;28;20049;-48
2022/07/09 03:34:10;;;;;;;0.30;0.30;;;;;;;9.50;100.00;102437.63;5062355;28;20033;-48
2022/07/09 03:36:36;;;;;;;0.40;0.40;;;;;;;9.49;100.00;102432.44;5058651;28;20029;-54
2022/07/09 03:39:01;;;;;;;0.35;0.35;;;;;;;9.49;100.00;102432.44;5065866;28;20032;-53
2022/07/09 03:41:27;;;;;;;0.30;0.10;;;;;;;9.47;100.00;102431.75;5063423;28;20033;-52
2022/07/09 03:43:52;;;;;;;0.30;0.30;;;;;;;9.46;100.00;102440.69;5061215;28;20021;-51
2022/07/09 03:46:17;;;;;;;1.00;0.30;;;;;;;9.40;100.00;102444.72;5066006;28;20028;-51
2022/07/09 03:48:43;;;;;;;0.35;0.20;;;;;;;9.35;100.00;102436.34;5068253;28;20446;-52
2022/07/09 03:51:08;;;;;;;0.80;0.28;;;;;;;9.32;100.00;102440.09;5056866;28;20106;-52
2022/07/09 03:53:33;;;;;;;1.02;0.40;;;;;;;9.31;100.00;102442.84;5040178;28;20025;-50
2022/07/09 03:55:59;;;;;;;0.35;0.17;;;;;;;9.29;100.00;102439.50;5068894;28;20024;-50
2022/07/09 03:58:25;;;;;;;0.63;0.55;;;;;;;9.30;100.00;102441.19;5066468;28;20067;-50
2022/07/09 04:00:52;;;;;;;1.63;0.47;;;;;;;9.31;100.00;102443.69;5060812;28;20460;-51
2022/07/09 04:03:18;;;;;;;0.47;0.30;;;;;;;9.29;100.00;102440.34;5064684;28;20051;-49
2022/07/09 04:05:44;;;;;;;0.80;0.10;;;;;;;9.27;100.00;102441.47;5061259;28;20036;-49
2022/07/09 04:08:10;;;;;;;0.80;0.20;;;;;;;9.28;100.00;102440.47;5069404;28;20132;-51
2022/07/09 04:10:35;;;;;;;0.22;0.20;;;;;;;9.27;100.00;102441.47;5068905;28;20108;-54
2022/07/09 04:13:00;;;;;;;0.15;0.15;;;;;;;9.29;100.00;102439.50;5064603;28;20024;-51
2022/07/09 04:15:26;;;;;;;0.75;0.40;;;;;;;9.30;100.00;102449.13;5055593;28;20037;-48
2022/07/09 04:17:51;;;;;;;0.95;0.35;;;;;;;9.31;100.00;102437.56;5064272;28;20036;-50
2022/07/09 04:20:16;;;;;;;1.58;0.40;;;;;;;9.30;100.00;102442.03;5052488;28;20075;-52
2022/07/09 04:22:42;;;;;;;0.45;0.22;;;;;;;9.31;100.00;102432.25;5055640;28;20051;-52
2022/07/09 04:25:07;;;;;;;1.40;0.40;;;;;;;9.33;100.00;102439.09;5064055;28;20393;-53
2022/07/09 04:27:35;;;;;;;0.30;0.30;;;;;;;9.31;100.00;102442.84;5062213;28;20055;-51
2022/07/09 04:30:01;;;;;;;2.30;0.20;;;;;;;9.28;100.00;102430.72;5053825;28;20108;-54
2022/07/09 04:32:26;;;;;;;0.30;0.25;;;;;;;9.27;100.00;102426.41;5054812;28;20108;-51
2022/07/09 04:34:51;;;;;;;0.30;0.22;;;;;;;9.28;100.00;102427.25;5060653;28;20518;-50
2022/07/09 04:37:17;;;;;;;0.30;0.25;;;;;;;9.26;100.00;102424.72;5063520;28;20524;-53
2022/07/09 04:39:42;;;;;;;0.80;0.45;;;;;;;9.25;100.00;102432.81;5077141;28;20059;-53
2022/07/09 04:42:10;;;;;;;0.63;0.38;;;;;;;9.22;100.00;102425.16;5053613;28;20048;-53
2022/07/09 04:44:35;;;;;;;0.60;0.20;;;;;;;9.21;100.00;102429.59;5060785;28;20033;-54
2022/07/09 04:47:01;;;;;;;0.17;0.17;;;;;;;9.19;100.00;102426.25;5079543;28;20031;-55
2022/07/09 04:49:26;;;;;;;1.48;1.05;;;;;;;9.19;100.00;102423.59;5063906;28;20029;-49
2022/07/09 04:51:51;;;;;;;0.68;0.40;;;;;;;9.19;100.00;102420.97;5054850;28;20105;-51
2022/07/09 04:54:17;;;;;;;0.20;0.20;;;;;;;9.22;100.00;102427.78;5057171;28;21468;-51
2022/07/09 04:56:42;;;;;;;0.08;0.08;;;;;;;9.23;100.00;102432.94;5070418;28;20028;-55
2022/07/09 04:59:08;;;;;;;0.80;0.28;;;;;;;9.28;100.00;102432.53;5069412;28;20476;-53
2022/07/09 05:01:33;;;;;;;0.98;0.25;;;;;;;9.33;100.00;102430.31;5059189;28;20040;-49
2022/07/09 05:03:59;;;;;;;0.88;0.85;;;;;;;9.39;100.00;102440.38;5050583;28;20104;-50
2022/07/09 05:06:24;;;;;;;0.20;0.20;;;;;;;9.47;100.00;102439.69;5064623;28;20047;-54
2022/07/09 05:08:50;;;;;;;0.30;0.30;;;;;;;9.57;100.00;102440.53;5072612;28;20032;-52
2022/07/09 05:11:15;;;;;;;0.60;0.57;;;;;;;9.67;100.00;102444.06;5058641;28;20041;-49
2022/07/09 05:13:41;;;;;;;0.40;0.40;;;;;;;9.78;100.00;102440.44;5051310;28;20033;-54
2022/07/09 05:16:07;;;;;;;0.35;0.30;;;;;;;9.90;100.00;102436.69;5057487;28;20040;-54
2022/07/09 05:18:33;;;;;;;0.80;0.68;;;;;;;10.02;100.00;102440.06;5056976;28;20397;-51
2022/07/09 05:20:58;;;;;;;0.43;0.38;;;;;;;10.17;100.00;102443.09;5060701;28;20032;-52
2022/07/09 05:23:24;;;;;;;1.73;0.28;;;;;;;10.24;100.00;102446.88;5055320;28;20037;-54
2022/07/09 05:25:49;;;;;;;0.80;0.65;;;;;;;10.33;100.00;102451.38;5059090;28;20048;-52
2022/07/09 05:28:15;;;;;;;0.88;0.43;;;;;;;10.45;100.00;102449.38;5056789;28;20104;-51
2022/07/09 05:30:41;;;;;;;1.30;0.43;;;;;;;10.56;100.00;102453.69;5064664;28;20158;-53
2022/07/09 05:33:06;;;;;;;2.38;0.70;;;;;;;10.76;100.00;102442.03;5059651;28;20032;-52
2022/07/09 05:35:32;;;;;;;1.77;0.68;;;;;;;10.89;100.00;102444.38;5060377;28;20115;-51
2022/07/09 05:37:58;;;;;;;1.52;0.60;;;;;;;11.00;100.00;102427.47;5064764;28;20143;-51
2022/07/09 05:40:23;;;;;;;1.13;1.13;;;;;;;11.16;100.00;102440.09;5053702;28;20048;-52
2022/07/09 05:42:48;;;;;;;1.52;1.38;;;;;;;11.43;100.00;102441.91;5063641;28;20111;-51
2022/07/09 05:45:14;;;;;;;3.65;1.25;;;;;;;11.75;100.00;102450.22;5061664;28;20040;-53
2022/07/09 05:47:39;;;;;;;1.75;1.00;;;;;;;11.90;100.00;102458.56;5070446;28;20172;-55
2022/07/09 05:50:05;;;;;;;0.82;0.80;;;;;;;12.06;100.00;102446.41;5058557;28;20029;-55
2022/07/09 05:52:31;;;;;;;4.20;1.90;;;;;;;12.30;100.00;102457.22;5054665;28;20085;-55
2022/07/09 05:54:57;;;;;;;6.00;1.63;;;;;;;12.53;100.00;102456.75;5063341;28;20024;-51
2022/07/09 05:57:22;;;;;;;7.20;2.63;;;;;;;12.86;100.00;102447.13;5057199;28;20574;-56
2022/07/09 05:59:48;;;;;;;2.92;1.60;;;;;;;13.14;100.00;102446.91;5056849;28;20028;-48
2022/07/09 06:02:13;;;;;;;2.22;1.70;;;;;;;13.42;100.00;102443.06;5057592;28;20501;-51
2022/07/09 06:04:39;;;;;;;3.13;1.33;;;;;;;13.53;100.00;102441.94;5058214;28;20070;-53
2022/07/09 06:07:05;;;;;;;4.13;2.05;;;;;;;13.86;100.00;102441.97;5058502;28;20037;-51
2022/07/09 06:09:30;;;;;;;2.47;2.20;;;;;;;14.19;100.00;102434.84;5058618;28;20020;-50
2022/07/09 06:11:56;;;;;;;2.53;2.00;;;;;;;14.52;100.00;102435.63;5056070;28;20033;-56
2022/07/09 06:14:21;;;;;;;3.28;2.00;;;;;;;14.76;100.00;102426.75;5057128;28;20108;-50
2022/07/09 06:16:47;;;;;;;2.08;1.35;;;;;;;14.91;100.00;102429.56;5062412;28;20117;-46
2022/07/09 06:19:13;;;;;;;2.55;2.05;;;;;;;15.08;100.00;102418.84;5060551;28;20504;-46
2022/07/09 06:21:38;;;;;;;4.57;2.53;;;;;;;15.17;100.00;102409.75;5055501;28;20029;-55
2022/07/09 06:24:04;;;;;;;2.40;2.20;;;;;;;15.14;100.00;102413.63;5058533;28;20029;-46
2022/07/09 06:26:31;;;;;;;1.90;1.77;;;;;;;15.21;100.00;102414.59;5057415;28;20129;-49
2022/07/09 06:28:56;;;;;;;3.28;2.13;;;;;;;15.29;100.00;102411.03;5062581;28;20054;-48
2022/07/09 06:31:22;;;;;;;2.58;2.33;;;;;;;15.28;100.00;102417.38;5056705;28;20123;-46
2022/07/09 06:33:48;;;;;;;2.17;1.77;;;;;;;15.34;100.00;102422.03;5057194;28;20029;-53
2022/07/09 06:36:13;;;;;;;4.40;1.83;;;;;;;15.46;100.00;102417.97;5059025;28;20504;-51
2022/07/09 06:39:44;;;;;;;4.72;1.90;;;;;;;15.56;100.00;102412.38;5060047;28;20056;-51
2022/07/09 06:41:24;;;;;;;1.95;1.73;;;;;;;15.68;100.00;102413.63;5054600;28;20082;-48
2022/07/09 06:43:50;;;;;;;4.40;2.35;;;;;;;15.75;100.00;102413.81;5055030;28;20046;-53
2022/07/09 06:46:15;;;;;;;2.65;2.13;;;;;;;15.77;100.00;102403.72;5051107;28;20544;-50
2022/07/09 06:48:40;;;;;;;6.07;2.75;;;;;;;15.83;100.00;102411.06;5053271;28;20040;-49
2022/07/09 06:51:06;;;;;;;4.95;2.33;;;;;;;15.89;100.00;102404.16;5052841;28;20032;-49
2022/07/09 06:53:31;;;;;;;2.53;2.35;;;;;;;15.90;100.00;102411.16;5055445;28;20111;-49
2022/07/09 06:55:56;;;;;;;2.00;1.73;;;;;;;15.93;100.00;102400.13;5054172;28;20071;-50
2022/07/09 06:58:22;;;;;;;2.72;1.98;;;;;;;16.01;100.00;102409.94;5057574;28;20024;-53
2022/07/09 07:00:47;;;;;;;3.60;1.10;;;;;;;16.10;100.00;102412.31;5053634;28;20151;-53
2022/07/09 07:03:12;;;;;;;2.65;2.20;;;;;;;16.23;100.00;102406.38;5054673;28;20032;-50
2022/07/09 07:05:38;;;;;;;1.38;1.27;;;;;;;16.39;100.00;102404.53;5055650;28;20063;-52
2022/07/09 07:08:04;;;;;;;0.88;0.70;;;;;;;16.48;100.00;102392.75;5057482;28;20438;-53
2022/07/09 07:10:29;;;;;;;1.65;1.50;;;;;;;16.60;100.00;102388.59;5054310;28;20366;-55
2022/07/09 07:12:55;;;;;;;3.78;1.38;;;;;;;16.71;100.00;102401.53;5058195;28;20027;-50
2022/07/09 07:15:21;;;;;;;3.38;1.27;;;;;;;16.74;100.00;102389.59;5053898;28;20033;-56
2022/07/09 07:17:47;;;;;;;1.15;0.93;;;;;;;16.83;100.00;102393.91;5055567;28;20498;-51
2022/07/09 07:20:12;;;;;;;0.82;0.82;;;;;;;16.99;100.00;102398.22;5060100;28;20106;-54
2022/07/09 07:22:38;;;;;;;3.80;1.48;;;;;;;16.94;100.00;102381.88;5035052;28;20481;-46
2022/07/09 07:25:04;;;;;;;1.65;1.52;;;;;;;16.88;100.00;102377.25;5067782;28;20047;-53
2022/07/09 07:27:29;;;;;;;3.13;1.30;;;;;;;16.99;100.00;102388.31;5058959;28;20401;-50
2022/07/09 07:29:54;;;;;;;1.23;1.02;;;;;;;17.04;100.00;102387.78;5054380;28;20200;-50
2022/07/09 07:32:20;;;;;;;6.28;1.27;;;;;;;17.05;100.00;102392.09;5055302;28;20452;-51
2022/07/09 07:34:45;;;;;;;1.65;0.95;;;;;;;17.19;100.00;102382.34;5062700;28;20159;-54
2022/07/09 07:37:11;;;;;;;1.17;1.00;;;;;;;17.22;100.00;102385.50;5050576;28;20039;-54
2022/07/09 07:39:36;;;;;;;1.25;1.15;;;;;;;17.33;100.00;102391.41;5052894;28;20379;-51
2022/07/09 07:42:01;;;;;;;4.10;0.75;;;;;;;17.56;100.00;102396.59;5048565;28;20087;-53
2022/07/09 07:44:28;;;;;;;1.65;0.98;;;;;;;17.77;100.00;102395.75;5050882;28;20082;-54
2022/07/09 07:46:54;;;;;;;1.25;1.15;;;;;;;17.86;100.00;102382.06;5062578;28;20044;-48
2022/07/09 07:49:19;;;;;;;0.85;0.85;;;;;;;17.90;100.00;102381.66;5042239;28;20029;-56
2022/07/09 07:51:45;;;;;;;3.22;0.60;;;;;;;18.09;100.00;102387.19;5045666;28;20033;-55
2022/07/09 07:54:10;;;;;;;2.95;0.52;;;;;;;18.39;100.00;102389.69;5048238;28;20029;-53
2022/07/09 07:56:38;;;;;;;1.55;0.40;;;;;;;18.37;100.00;102383.66;5049865;28;20037;-53
2022/07/09 07:59:03;;;;;;;1.20;0.47;;;;;;;18.52;100.00;102370.94;5049426;28;20040;-54
2022/07/09 08:01:29;;;;;;;0.68;0.68;;;;;;;18.49;100.00;102367.84;5050084;28;20039;-52
2022/07/09 08:03:55;;;;;;;0.50;0.50;;;;;;;18.38;100.00;102373.75;5045044;28;20108;-52
2022/07/09 08:06:22;;;;;;;2.50;1.35;;;;;;;18.43;100.00;102364.09;5051437;28;20131;-55
2022/07/09 08:08:47;;;;;;;2.08;0.45;;;;;;;18.46;100.00;102365.56;5057048;28;20059;-56
2022/07/09 08:11:12;;;;;;;1.92;0.35;;;;;;;18.61;100.00;102362.72;5051858;28;20547;-50
2022/07/09 08:13:39;;;;;;;1.73;0.30;;;;;;;18.63;100.00;102361.50;5058839;28;20029;-52
2022/07/09 08:16:05;;;;;;;2.38;0.20;;;;;;;18.96;100.00;102367.06;5053540;28;20108;-53
2022/07/09 08:18:30;;;;;;;0.98;0.50;;;;;;;18.88;100.00;102348.44;5046608;28;20029;-50
2022/07/09 08:20:56;;;;;;;1.48;0.30;;;;;;;19.10;100.00;102353.66;5044418;28;20025;-51
2022/07/09 08:23:21;;;;;;;1.00;0.20;;;;;;;19.31;100.00;102358.91;5042483;28;20024;-52
2022/07/09 08:25:47;;;;;;;0.43;0.20;;;;;;;19.69;100.00;102354.84;5053553;28;20029;-45
2022/07/09 08:28:12;;;;;;;0.70;0.13;;;;;;;19.83;100.00;102345.75;5035801;28;20362;-58
2022/07/09 08:30:38;;;;;;;1.17;0.10;;;;;;;19.79;100.00;102353.38;5047200;28;20452;-53
2022/07/09 08:33:03;;;;;;;1.10;0.00;;;;;;;19.94;100.00;102342.41;5053126;28;20474;-52
2022/07/09 08:35:29;;;;;;;0.20;0.20;;;;;;;19.87;100.00;102341.59;5056412;28;20069;-51
2022/07/09 08:37:54;;;;;;;1.40;0.30;;;;;;;19.63;100.00;102337.63;5050609;28;20586;-50
2022/07/09 08:40:21;;;;;;;0.95;0.13;;;;;;;19.53;100.00;102350.66;5052668;28;20037;-50
2022/07/09 08:42:47;;;;;;;0.63;0.10;;;;;;;19.62;100.00;102344.06;5056109;28;20031;-48
2022/07/09 08:45:13;;;;;;;3.92;0.00;;;;;;;19.89;100.00;102336.81;5056909;28;20591;-48
2022/07/09 08:47:39;;;;;;;0.57;0.25;;;;;;;20.07;100.00;102335.38;5052965;28;20123;-54
2022/07/09 08:50:05;;;;;;;0.60;0.08;;;;;;;20.04;100.00;102336.63;5056263;28;20040;-52
2022/07/09 08:52:31;;;;;;;1.30;0.17;;;;;;;19.87;100.00;102336.19;5035389;28;20046;-50
2022/07/09 08:54:56;;;;;;;0.45;0.25;;;;;;;19.51;100.00;102340.09;5064536;28;20035;-47
2022/07/09 08:57:22;;;;;;;0.73;0.20;;;;;;;19.11;100.00;102336.50;5055966;28;20370;-51
2022/07/09 08:59:47;;;;;;;0.30;0.10;;;;;;;18.91;100.00;102336.44;5059195;28;20104;-56
2022/07/09 09:02:13;;;;;;;0.10;0.10;;;;;;;19.33;100.00;102342.53;5055991;28;20040;-53
2022/07/09 09:04:39;;;;;;;0.10;0.00;;;;;;;19.92;100.00;102327.50;5051087;28;20531;-55
2022/07/09 09:07:15;;;;;;;1.20;0.10;;;;;;;20.25;100.00;102317.50;5052973;28;20040;-53
2022/07/09 09:09:40;;;;;;;1.30;0.20;;;;;;;20.17;100.00;102315.03;5052760;28;20032;-50
2022/07/09 09:12:06;;;;;;;0.32;0.10;;;;;;;20.02;100.00;102323.34;5059221;28;20032;-55
2022/07/09 09:14:32;;;;;;;0.10;0.10;;;;;;;19.97;100.00;102333.91;5056820;28;20043;-53
2022/07/09 09:17:09;;;;;;;0.98;0.13;;;;;;;20.29;100.00;102322.47;5028297;28;20035;-52
2022/07/09 09:19:35;;;;;;;0.10;0.00;;;;;;;20.34;100.00;102317.28;5053268;28;20044;-53
2022/07/09 09:22:01;;;;;;;0.15;0.03;;;;;;;20.50;100.00;102319.53;5051721;28;20024;-54
2022/07/09 09:24:29;;;;;;;0.20;0.20;;;;;;;20.51;100.00;102312.25;5050661;28;20045;-50
2022/07/09 09:27:14;;;;;;;0.10;0.00;;;;;;;20.31;100.00;102304.22;5063020;28;20036;-57
2022/07/09 09:29:49;;;;;;;0.00;0.00;;;;;;;20.12;100.00;102314.84;5048339;28;20555;-53
2022/07/09 09:32:19;;;;;;;0.13;0.00;;;;;;;20.22;100.00;102309.03;5055165;28;20117;-53
2022/07/09 09:34:49;;;;;;;0.28;0.13;;;;;;;20.44;100.00;102309.56;5053819;28;20021;-53
2022/07/09 09:37:25;;;;;;;0.28;0.00;;;;;;;20.41;100.00;102318.09;5055991;28;20140;-54
2022/07/09 09:39:51;;;;;;;0.15;0.00;;;;;;;20.61;100.00;102315.38;5050426;28;20388;-53
2022/07/09 09:42:16;;;;;;;0.20;0.10;;;;;;;20.41;100.00;102315.41;5051299;28;20039;-51
2022/07/09 09:44:44;;;;;;;0.20;0.00;;;;;;;20.19;100.00;102315.66;5049143;28;20569;-51
2022/07/09 09:47:10;;;;;;;0.55;0.47;;;;;;;20.00;100.00;102329.97;5056900;28;20037;-50
2022/07/09 09:49:37;;;;;;;0.10;0.10;;;;;;;19.87;100.00;102330.00;5054472;28;20082;-52
2022/07/09 09:52:11;;;;;;;0.30;0.00;;;;;;;20.25;100.00;102320.19;5063636;28;20139;-52
2022/07/09 09:54:39;;;;;;;0.20;0.20;;;;;;;20.90;100.00;102320.19;5050127;28;20052;-52
2022/07/09 09:57:06;;;;;;;0.40;0.15;;;;;;;21.31;100.00;102320.78;5065931;28;20036;-60
2022/07/09 09:59:36;;;;;;;0.43;0.10;;;;;;;21.74;100.00;102314.69;5064008;28;20024;-56
2022/07/09 10:02:04;;;;;;;3.22;0.10;;;;;;;21.65;100.00;102318.69;5031451;28;20047;-57
2022/07/09 10:04:29;;;;;;;0.10;0.10;;;;;;;21.72;100.00;102317.59;5057542;28;20032;-48
2022/07/09 10:06:55;;;;;;;0.20;0.10;;;;;;;21.97;100.00;102312.19;5054605;28;20449;-49
2022/07/09 10:09:21;;;;;;;0.88;0.15;;;;;;;21.91;100.00;102310.34;5065279;28;20086;-52
2022/07/09 10:11:48;;;;;;;0.00;0.00;;;;;;;21.84;100.00;102315.00;5060254;28;20029;-50
2022/07/09 10:14:23;;;;;;;0.08;0.00;;;;;;;21.80;100.00;102308.38;5063332;28;20120;-50
2022/07/09 10:16:48;;;;;;;0.50;0.30;;;;;;;21.47;100.00;102314.88;5054011;28;20084;-49
2022/07/09 10:19:27;;;;;;;0.10;0.00;;;;;;;21.07;100.00;102315.13;5062568;28;20040;-50
2022/07/09 10:21:55;;;;;;;0.75;0.10;;;;;;;20.83;100.00;102319.41;5038020;28;20081;-52
2022/07/09 10:24:39;;;;;;;0.10;0.10;;;;;;;20.91;100.00;102313.78;5062864;28;20028;-49
2022/07/09 10:27:06;;;;;;;0.85;0.77;;;;;;;21.04;100.00;102312.88;5052799;28;20512;-54
2022/07/09 10:29:33;;;;;;;0.80;0.03;;;;;;;21.33;100.00;102314.13;5051338;28;20035;-54
2022/07/09 10:31:58;;;;;;;0.00;0.00;;;;;;;22.06;100.00;102306.50;5060951;28;20032;-53
2022/07/09 10:34:48;;;;;;;0.73;0.20;;;;;;;22.80;100.00;102307.31;5054113;28;20087;-49
2022/07/09 10:37:14;;;;;;;0.50;0.10;;;;;;;22.52;100.00;102306.00;5058224;28;20071;-55
2022/07/09 10:39:39;;;;;;;0.75;0.10;;;;;;;21.92;100.00;102306.63;5053321;28;20029;-49
2022/07/09 10:42:16;;;;;;;0.80;0.32;;;;;;;21.49;100.00;102307.41;5057557;28;20037;-45
2022/07/09 10:44:41;;;;;;;1.92;0.68;;;;;;;21.77;100.00;102304.25;5055743;28;20038;-50
2022/07/09 10:47:07;;;;;;;1.70;0.15;;;;;;;21.78;100.00;102300.50;5036225;28;20032;-48
2022/07/09 10:49:36;;;;;;;0.00;0.00;;;;;;;22.03;100.00;102301.53;5045652;28;20075;-52
2022/07/09 10:52:04;;;;;;;0.10;0.05;;;;;;;22.31;100.00;102298.34;5052005;28;20021;-54
2022/07/09 10:54:29;;;;;;;0.20;0.15;;;;;;;22.58;100.00;102298.84;5051556;28;20036;-48
2022/07/09 10:56:55;;;;;;;0.10;0.00;;;;;;;22.34;100.00;102292.50;5054582;28;20024;-52
2022/07/09 10:59:21;;;;;;;0.20;0.20;;;;;;;22.58;100.00;102291.56;5053070;28;20033;-53
2022/07/09 11:01:47;;;;;;;0.52;0.10;;;;;;;22.72;100.00;102281.41;5060296;28;20401;-55
2022/07/09 11:04:33;;;;;;;1.55;0.10;;;;;;;23.10;100.00;102288.38;5055757;28;20104;-47
2022/07/09 11:06:59;;;;;;;1.95;0.90;;;;;;;23.11;100.00;102279.22;5057452;28;20040;-52
2022/07/09 11:09:29;;;;;;;0.10;0.10;;;;;;;23.56;100.00;102286.81;5054219;28;20025;-55
2022/07/09 11:11:54;;;;;;;0.95;0.60;;;;;;;23.90;100.00;102279.78;5055946;28;20036;-55
2022/07/09 11:14:20;;;;;;;0.52;0.00;;;;;;;23.18;100.00;102290.78;5054476;28;20017;-49
2022/07/09 11:16:56;;;;;;;0.77;0.28;;;;;;;22.49;100.00;102292.13;5055755;28;20032;-49